Terminal Aerodrome Forecast
Issued by NWS Twin Cities, MN

Home | Current Version | Previous Version | Graphics & Text | Print | Product List | Glossary On
Versions: 1 2 3 4 5 6 7 8 9 10 11 12 13 14 15 16 17 18 19 20
224
FTUS43 KMPX 171138
TAFSTC
TAF
KSTC 171138Z 1712/1812 33004KT 4SM BR OVC018
      TEMPO 1712/1714 2SM BR OVC005
     FM171800 25004KT P6SM SCT150
     FM180000 20005KT P6SM SCT250=

USA.gov is the U.S. government's official web portal to all federal, state and local government web resources and services.